sensor_id;sensor_type;location;lat;lon;timestamp;temperature;humidity
4429;DHT22;2227;47.810;8.810;2023-09-19T03:46:14;16.70;99.90
4429;DHT22;2227;47.810;8.810;2023-09-19T03:48:42;16.70;99.90
4429;DHT22;2227;47.810;8.810;2023-09-19T03:51:09;16.60;99.90
4429;DHT22;2227;47.810;8.810;2023-09-19T03:53:37;16.50;99.90
4429;DHT22;2227;47.810;8.810;2023-09-19T03:56:04;16.60;99.90
4429;DHT22;2227;47.810;8.810;2023-09-19T03:58:32;16.50;99.90
4429;DHT22;2227;47.810;8.810;2023-09-19T04:01:01;16.60;99.90
4429;DHT22;2227;47.810;8.810;2023-09-19T04:03:29;16.50;99.90
4429;DHT22;2227;47.810;8.810;2023-09-19T04:06:01;16.50;99.90
4429;DHT22;2227;47.810;8.810;2023-09-19T04:08:29;16.50;99.90
4429;DHT22;2227;47.810;8.810;2023-09-19T04:10:56;16.50;99.90
4429;DHT22;2227;47.810;8.810;2023-09-19T04:13:23;16.50;99.90
4429;DHT22;2227;47.810;8.810;2023-09-19T04:15:50;16.50;99.90
4429;DHT22;2227;47.810;8.810;2023-09-19T04:18:17;16.50;99.90
4429;DHT22;2227;47.810;8.810;2023-09-19T04:20:48;16.50;99.90
4429;DHT22;2227;47.810;8.810;2023-09-19T04:23:16;16.50;99.90
4429;DHT22;2227;47.810;8.810;2023-09-19T04:25:43;16.50;99.90
4429;DHT22;2227;47.810;8.810;2023-09-19T04:28:10;16.60;99.90
4429;DHT22;2227;47.810;8.810;2023-09-19T04:30:38;16.70;99.90
4429;DHT22;2227;47.810;8.810;2023-09-19T04:33:07;16.70;99.90
4429;DHT22;2227;47.810;8.810;2023-09-19T04:35:34;16.80;99.90
4429;DHT22;2227;47.810;8.810;2023-09-19T04:38:01;16.70;99.90
4429;DHT22;2227;47.810;8.810;2023-09-19T04:40:30;16.70;99.90
4429;DHT22;2227;47.810;8.810;2023-09-19T04:42:56;16.70;99.90
4429;DHT22;2227;47.810;8.810;2023-09-19T04:45:24;16.70;99.90
4429;DHT22;2227;47.810;8.810;2023-09-19T04:47:51;16.70;99.90
4429;DHT22;2227;47.810;8.810;2023-09-19T04:50:18;16.70;99.90
4429;DHT22;2227;47.810;8.810;2023-09-19T04:52:45;16.70;99.90
4429;DHT22;2227;47.810;8.810;2023-09-19T04:55:13;16.70;99.90
4429;DHT22;2227;47.810;8.810;2023-09-19T04:57:48;16.70;99.90
4429;DHT22;2227;47.810;8.810;2023-09-19T05:00:17;16.70;99.90
4429;DHT22;2227;47.810;8.810;2023-09-19T05:02:44;16.80;99.90
4429;DHT22;2227;47.810;8.810;2023-09-19T05:05:12;16.80;99.90
4429;DHT22;2227;47.810;8.810;2023-09-19T05:07:41;16.80;99.90
4429;DHT22;2227;47.810;8.810;2023-09-19T05:10:09;16.80;99.90
4429;DHT22;2227;47.810;8.810;2023-09-19T05:12:37;16.90;99.90
4429;DHT22;2227;47.810;8.810;2023-09-19T05:15:04;16.90;99.90
4429;DHT22;2227;47.810;8.810;2023-09-19T05:17:31;17.00;99.90
4429;DHT22;2227;47.810;8.810;2023-09-19T05:19:59;16.90;99.90
4429;DHT22;2227;47.810;8.810;2023-09-19T05:22:32;16.80;99.90
4429;DHT22;2227;47.810;8.810;2023-09-19T05:24:59;16.80;99.90
4429;DHT22;2227;47.810;8.810;2023-09-19T05:27:26;16.80;99.90
4429;DHT22;2227;47.810;8.810;2023-09-19T05:29:53;16.80;99.90
4429;DHT22;2227;47.810;8.810;2023-09-19T05:32:20;16.70;99.90
4429;DHT22;2227;47.810;8.810;2023-09-19T05:34:46;16.70;99.90
4429;DHT22;2227;47.810;8.810;2023-09-19T05:37:13;16.70;99.90
4429;DHT22;2227;47.810;8.810;2023-09-19T05:39:42;16.70;99.90
4429;DHT22;2227;47.810;8.810;2023-09-19T05:42:10;16.70;99.90
4429;DHT22;2227;47.810;8.810;2023-09-19T05:44:37;16.70;99.90
4429;DHT22;2227;47.810;8.810;2023-09-19T05:47:04;16.70;99.90
4429;DHT22;2227;47.810;8.810;2023-09-19T05:49:30;16.70;99.90
4429;DHT22;2227;47.810;8.810;2023-09-19T05:51:57;16.70;99.90
4429;DHT22;2227;47.810;8.810;2023-09-19T05:54:25;16.60;99.90
4429;DHT22;2227;47.810;8.810;2023-09-19T05:56:52;16.60;99.90
4429;DHT22;2227;47.810;8.810;2023-09-19T05:59:19;16.60;99.90
4429;DHT22;2227;47.810;8.810;2023-09-19T06:01:46;16.60;99.90
4429;DHT22;2227;47.810;8.810;2023-09-19T06:04:14;16.70;99.90
4429;DHT22;2227;47.810;8.810;2023-09-19T06:06:41;16.70;99.90
4429;DHT22;2227;47.810;8.810;2023-09-19T06:09:07;16.70;99.90
4429;DHT22;2227;47.810;8.810;2023-09-19T06:11:35;16.70;99.90
4429;DHT22;2227;47.810;8.810;2023-09-19T06:14:02;16.70;99.90
4429;DHT22;2227;47.810;8.810;2023-09-19T06:16:30;16.70;99.90
4429;DHT22;2227;47.810;8.810;2023-09-19T06:18:58;16.80;99.90
4429;DHT22;2227;47.810;8.810;2023-09-19T06:21:28;16.80;99.90
4429;DHT22;2227;47.810;8.810;2023-09-19T06:23:54;16.90;99.90
4429;DHT22;2227;47.810;8.810;2023-09-19T06:26:21;16.90;99.90
4429;DHT22;2227;47.810;8.810;2023-09-19T06:28:48;17.10;99.90
4429;DHT22;2227;47.810;8.810;2023-09-19T06:31:15;17.20;99.90
4429;DHT22;2227;47.810;8.810;2023-09-19T06:33:42;17.20;99.90
4429;DHT22;2227;47.810;8.810;2023-09-19T06:36:09;17.20;99.90
4429;DHT22;2227;47.810;8.810;2023-09-19T06:38:36;17.20;99.90
4429;DHT22;2227;47.810;8.810;2023-09-19T06:41:03;17.30;99.90
4429;DHT22;2227;47.810;8.810;2023-09-19T06:43:31;17.30;99.90
4429;DHT22;2227;47.810;8.810;2023-09-19T06:46:03;17.20;99.90
4429;DHT22;2227;47.810;8.810;2023-09-19T06:48:31;17.10;99.90
4429;DHT22;2227;47.810;8.810;2023-09-19T06:51:00;17.10;99.90
4429;DHT22;2227;47.810;8.810;2023-09-19T06:53:32;17.20;99.90
4429;DHT22;2227;47.810;8.810;2023-09-19T06:55:59;17.40;99.90
4429;DHT22;2227;47.810;8.810;2023-09-19T06:58:26;17.40;99.90
4429;DHT22;2227;47.810;8.810;2023-09-19T07:00:55;17.40;99.90
4429;DHT22;2227;47.810;8.810;2023-09-19T07:03:23;17.50;99.90
4429;DHT22;2227;47.810;8.810;2023-09-19T07:05:52;17.60;99.90
4429;DHT22;2227;47.810;8.810;2023-09-19T07:08:22;17.70;99.90
4429;DHT22;2227;47.810;8.810;2023-09-19T07:10:49;17.70;99.90
4429;DHT22;2227;47.810;8.810;2023-09-19T07:13:16;17.80;99.90
4429;DHT22;2227;47.810;8.810;2023-09-19T07:15:44;17.90;99.90
4429;DHT22;2227;47.810;8.810;2023-09-19T07:18:17;17.80;99.90
4429;DHT22;2227;47.810;8.810;2023-09-19T07:20:45;17.90;99.90
4429;DHT22;2227;47.810;8.810;2023-09-19T07:23:20;18.10;99.90
4429;DHT22;2227;47.810;8.810;2023-09-19T07:25:47;18.30;99.90
4429;DHT22;2227;47.810;8.810;2023-09-19T07:28:15;18.50;99.90
4429;DHT22;2227;47.810;8.810;2023-09-19T07:30:42;18.60;99.90
4429;DHT22;2227;47.810;8.810;2023-09-19T07:33:09;18.70;99.90
4429;DHT22;2227;47.810;8.810;2023-09-19T07:35:39;18.90;99.90
4429;DHT22;2227;47.810;8.810;2023-09-19T07:38:08;18.90;99.90
4429;DHT22;2227;47.810;8.810;2023-09-19T07:40:38;19.30;99.90
4429;DHT22;2227;47.810;8.810;2023-09-19T07:43:06;19.60;99.90
4429;DHT22;2227;47.810;8.810;2023-09-19T07:45:33;19.70;99.90
4429;DHT22;2227;47.810;8.810;2023-09-19T07:48:00;19.90;99.90
4429;DHT22;2227;47.810;8.810;2023-09-19T07:50:32;20.40;99.90
4429;DHT22;2227;47.810;8.810;2023-09-19T07:52:59;20.80;99.90
4429;DHT22;2227;47.810;8.810;2023-09-19T07:55:26;20.90;99.90
4429;DHT22;2227;47.810;8.810;2023-09-19T07:57:53;20.90;99.90
4429;DHT22;2227;47.810;8.810;2023-09-19T08:00:20;21.10;99.90
4429;DHT22;2227;47.810;8.810;2023-09-19T08:02:47;21.60;99.90
4429;DHT22;2227;47.810;8.810;2023-09-19T08:05:24;22.70;99.90
4429;DHT22;2227;47.810;8.810;2023-09-19T08:07:51;23.40;99.90
4429;DHT22;2227;47.810;8.810;2023-09-19T08:10:19;23.30;99.90
4429;DHT22;2227;47.810;8.810;2023-09-19T08:12:48;22.80;99.90
4429;DHT22;2227;47.810;8.810;2023-09-19T08:15:16;22.70;99.90
4429;DHT22;2227;47.810;8.810;2023-09-19T08:17:43;22.80;99.90
4429;DHT22;2227;47.810;8.810;2023-09-19T08:20:11;22.30;99.90
4429;DHT22;2227;47.810;8.810;2023-09-19T08:22:53;21.40;99.90
4429;DHT22;2227;47.810;8.810;2023-09-19T08:25:23;21.70;99.90
4429;DHT22;2227;47.810;8.810;2023-09-19T08:27:52;22.90;99.90
4429;DHT22;2227;47.810;8.810;2023-09-19T08:30:20;23.70;99.90
4429;DHT22;2227;47.810;8.810;2023-09-19T08:32:51;23.70;99.90
4429;DHT22;2227;47.810;8.810;2023-09-19T08:35:18;23.70;99.90
4429;DHT22;2227;47.810;8.810;2023-09-19T08:37:46;23.70;99.90
4429;DHT22;2227;47.810;8.810;2023-09-19T08:40:15;23.60;99.90
4429;DHT22;2227;47.810;8.810;2023-09-19T08:45:21;25.20;99.90
4429;DHT22;2227;47.810;8.810;2023-09-19T08:50:48;24.50;99.90
4429;DHT22;2227;47.810;8.810;2023-09-19T08:53:26;24.00;99.90
4429;DHT22;2227;47.810;8.810;2023-09-19T08:55:54;23.50;99.90
4429;DHT22;2227;47.810;8.810;2023-09-19T08:58:31;22.80;99.90
4429;DHT22;2227;47.810;8.810;2023-09-19T09:01:01;22.10;99.90
4429;DHT22;2227;47.810;8.810;2023-09-19T09:03:33;21.90;99.90
4429;DHT22;2227;47.810;8.810;2023-09-19T09:06:01;21.80;99.90
4429;DHT22;2227;47.810;8.810;2023-09-19T09:08:30;22.10;99.90
4429;DHT22;2227;47.810;8.810;2023-09-19T09:10:58;22.30;99.90
4429;DHT22;2227;47.810;8.810;2023-09-19T09:13:26;22.70;99.90
4429;DHT22;2227;47.810;8.810;2023-09-19T09:15:53;22.80;99.90
4429;DHT22;2227;47.810;8.810;2023-09-19T09:18:21;22.70;99.90
4429;DHT22;2227;47.810;8.810;2023-09-19T09:20:49;22.60;99.90
4429;DHT22;2227;47.810;8.810;2023-09-19T09:23:16;22.30;99.90
4429;DHT22;2227;47.810;8.810;2023-09-19T09:25:53;22.30;99.90
4429;DHT22;2227;47.810;8.810;2023-09-19T09:28:34;22.60;99.90
4429;DHT22;2227;47.810;8.810;2023-09-19T09:31:03;24.20;99.90
4429;DHT22;2227;47.810;8.810;2023-09-19T09:33:35;24.90;99.90
4429;DHT22;2227;47.810;8.810;2023-09-19T09:36:03;25.00;99.90
4429;DHT22;2227;47.810;8.810;2023-09-19T09:38:47;24.50;99.90
4429;DHT22;2227;47.810;8.810;2023-09-19T09:41:36;24.20;99.90
4429;DHT22;2227;47.810;8.810;2023-09-19T09:44:14;24.40;99.90
4429;DHT22;2227;47.810;8.810;2023-09-19T09:46:48;24.20;99.90
4429;DHT22;2227;47.810;8.810;2023-09-19T09:49:27;24.10;99.90
4429;DHT22;2227;47.810;8.810;2023-09-19T09:52:05;23.70;99.90
4429;DHT22;2227;47.810;8.810;2023-09-19T09:54:37;23.10;99.90
4429;DHT22;2227;47.810;8.810;2023-09-19T09:57:10;22.70;99.90
4429;DHT22;2227;47.810;8.810;2023-09-19T09:59:58;22.70;99.90
4429;DHT22;2227;47.810;8.810;2023-09-19T10:02:30;22.70;99.90
4429;DHT22;2227;47.810;8.810;2023-09-19T10:05:23;22.00;99.90
4429;DHT22;2227;47.810;8.810;2023-09-19T10:08:11;21.70;99.90
4429;DHT22;2227;47.810;8.810;2023-09-19T10:10:40;21.40;99.90
4429;DHT22;2227;47.810;8.810;2023-09-19T10:13:12;21.30;99.90
4429;DHT22;2227;47.810;8.810;2023-09-19T10:15:42;22.00;99.90
4429;DHT22;2227;47.810;8.810;2023-09-19T10:18:16;21.70;99.90
4429;DHT22;2227;47.810;8.810;2023-09-19T10:20:46;21.50;99.90
4429;DHT22;2227;47.810;8.810;2023-09-19T10:23:13;22.50;99.90
4429;DHT22;2227;47.810;8.810;2023-09-19T10:25:41;22.40;99.90
4429;DHT22;2227;47.810;8.810;2023-09-19T10:28:10;22.90;99.90
4429;DHT22;2227;47.810;8.810;2023-09-19T10:30:45;23.90;99.90
4429;DHT22;2227;47.810;8.810;2023-09-19T10:33:16;25.40;99.90
4429;DHT22;2227;47.810;8.810;2023-09-19T10:35:50;26.30;98.60
4429;DHT22;2227;47.810;8.810;2023-09-19T10:38:25;26.80;97.10
4429;DHT22;2227;47.810;8.810;2023-09-19T10:40:56;27.10;95.70
4429;DHT22;2227;47.810;8.810;2023-09-19T10:43:32;27.00;95.20
4429;DHT22;2227;47.810;8.810;2023-09-19T10:46:08;27.50;94.80
4429;DHT22;2227;47.810;8.810;2023-09-19T10:48:41;26.60;94.40
4429;DHT22;2227;47.810;8.810;2023-09-19T10:51:14;26.60;95.40
4429;DHT22;2227;47.810;8.810;2023-09-19T10:53:46;27.80;94.10
4429;DHT22;2227;47.810;8.810;2023-09-19T10:56:30;27.40;93.30
4429;DHT22;2227;47.810;8.810;2023-09-19T10:59:11;27.80;93.40
4429;DHT22;2227;47.810;8.810;2023-09-19T11:01:44;27.00;93.20
4429;DHT22;2227;47.810;8.810;2023-09-19T11:04:29;26.90;93.60
4429;DHT22;2227;47.810;8.810;2023-09-19T11:07:11;26.40;92.40
4429;DHT22;2227;47.810;8.810;2023-09-19T11:09:55;26.60;93.00
4429;DHT22;2227;47.810;8.810;2023-09-19T11:16:03;26.60;92.60
4429;DHT22;2227;47.810;8.810;2023-09-19T11:26:49;26.90;92.20
4429;DHT22;2227;47.810;8.810;2023-09-19T11:29:25;26.70;91.80
4429;DHT22;2227;47.810;8.810;2023-09-19T11:31:53;27.20;91.10
4429;DHT22;2227;47.810;8.810;2023-09-19T11:34:43;27.90;90.10
4429;DHT22;2227;47.810;8.810;2023-09-19T11:40:07;28.10;87.80
4429;DHT22;2227;47.810;8.810;2023-09-19T11:42:45;27.60;88.80
4429;DHT22;2227;47.810;8.810;2023-09-19T11:48:18;27.90;88.90
4429;DHT22;2227;47.810;8.810;2023-09-19T11:50:46;28.20;87.30
4429;DHT22;2227;47.810;8.810;2023-09-19T11:53:14;28.40;88.10
4429;DHT22;2227;47.810;8.810;2023-09-19T11:55:43;28.40;85.40
4429;DHT22;2227;47.810;8.810;2023-09-19T11:58:10;27.50;89.10
4429;DHT22;2227;47.810;8.810;2023-09-19T12:00:43;27.10;90.00
4429;DHT22;2227;47.810;8.810;2023-09-19T12:03:12;26.60;90.30
4429;DHT22;2227;47.810;8.810;2023-09-19T12:05:40;26.20;90.50
4429;DHT22;2227;47.810;8.810;2023-09-19T12:08:07;26.30;90.40
4429;DHT22;2227;47.810;8.810;2023-09-19T12:10:48;26.80;90.00
4429;DHT22;2227;47.810;8.810;2023-09-19T12:13:17;26.20;90.00
4429;DHT22;2227;47.810;8.810;2023-09-19T12:15:45;26.00;90.60
4429;DHT22;2227;47.810;8.810;2023-09-19T12:18:27;25.90;90.60
4429;DHT22;2227;47.810;8.810;2023-09-19T12:20:55;26.40;90.90
4429;DHT22;2227;47.810;8.810;2023-09-19T12:23:22;26.80;90.60
4429;DHT22;2227;47.810;8.810;2023-09-19T12:25:49;26.50;90.40
4429;DHT22;2227;47.810;8.810;2023-09-19T12:28:20;26.60;90.40
4429;DHT22;2227;47.810;8.810;2023-09-19T12:30:49;26.60;90.50
4429;DHT22;2227;47.810;8.810;2023-09-19T12:33:20;26.10;91.70
4429;DHT22;2227;47.810;8.810;2023-09-19T12:35:47;26.20;92.00
4429;DHT22;2227;47.810;8.810;2023-09-19T12:38:27;26.20;91.90
4429;DHT22;2227;47.810;8.810;2023-09-19T12:41:02;26.20;91.90
4429;DHT22;2227;47.810;8.810;2023-09-19T12:43:30;26.30;92.60
4429;DHT22;2227;47.810;8.810;2023-09-19T12:45:59;26.50;91.90
4429;DHT22;2227;47.810;8.810;2023-09-19T12:48:26;26.40;91.50
4429;DHT22;2227;47.810;8.810;2023-09-19T12:51:09;25.80;92.10
4429;DHT22;2227;47.810;8.810;2023-09-19T12:53:40;25.90;92.40
4429;DHT22;2227;47.810;8.810;2023-09-19T12:56:10;26.00;92.20
4429;DHT22;2227;47.810;8.810;2023-09-19T12:58:57;25.50;93.20
4429;DHT22;2227;47.810;8.810;2023-09-19T13:01:29;25.80;92.40
4429;DHT22;2227;47.810;8.810;2023-09-19T13:04:19;26.10;92.20
4429;DHT22;2227;47.810;8.810;2023-09-19T13:06:48;26.30;91.60
4429;DHT22;2227;47.810;8.810;2023-09-19T13:09:17;25.90;92.50
4429;DHT22;2227;47.810;8.810;2023-09-19T13:11:44;25.80;92.40
4429;DHT22;2227;47.810;8.810;2023-09-19T13:14:26;25.90;93.40
4429;DHT22;2227;47.810;8.810;2023-09-19T13:17:05;26.50;92.80
4429;DHT22;2227;47.810;8.810;2023-09-19T13:22:40;26.60;92.00
4429;DHT22;2227;47.810;8.810;2023-09-19T13:25:16;26.50;92.00
4429;DHT22;2227;47.810;8.810;2023-09-19T13:27:54;25.90;92.80
4429;DHT22;2227;47.810;8.810;2023-09-19T13:30:27;25.60;93.60
4429;DHT22;2227;47.810;8.810;2023-09-19T13:33:06;25.20;94.00
4429;DHT22;2227;47.810;8.810;2023-09-19T13:35:34;25.50;94.10
4429;DHT22;2227;47.810;8.810;2023-09-19T13:38:00;25.90;93.70
4429;DHT22;2227;47.810;8.810;2023-09-19T13:40:28;26.10;92.30
4429;DHT22;2227;47.810;8.810;2023-09-19T13:42:57;26.10;93.10
4429;DHT22;2227;47.810;8.810;2023-09-19T13:45:24;26.00;93.20
4429;DHT22;2227;47.810;8.810;2023-09-19T13:47:53;25.40;94.00
4429;DHT22;2227;47.810;8.810;2023-09-19T13:50:20;25.60;93.90
4429;DHT22;2227;47.810;8.810;2023-09-19T13:52:51;25.60;93.20
4429;DHT22;2227;47.810;8.810;2023-09-19T13:55:18;25.50;94.10
4429;DHT22;2227;47.810;8.810;2023-09-19T13:57:50;26.10;93.60
4429;DHT22;2227;47.810;8.810;2023-09-19T14:00:19;26.30;92.50
4429;DHT22;2227;47.810;8.810;2023-09-19T14:02:48;26.80;92.40
4429;DHT22;2227;47.810;8.810;2023-09-19T14:05:16;26.90;91.90
4429;DHT22;2227;47.810;8.810;2023-09-19T14:07:43;27.20;92.00
4429;DHT22;2227;47.810;8.810;2023-09-19T14:10:10;27.50;91.50
4429;DHT22;2227;47.810;8.810;2023-09-19T14:12:38;27.40;91.80
4429;DHT22;2227;47.810;8.810;2023-09-19T14:15:08;27.10;91.70
4429;DHT22;2227;47.810;8.810;2023-09-19T14:17:35;26.60;92.30
4429;DHT22;2227;47.810;8.810;2023-09-19T14:20:02;26.30;92.20
4429;DHT22;2227;47.810;8.810;2023-09-19T14:22:31;26.10;92.30
4429;DHT22;2227;47.810;8.810;2023-09-19T14:24:58;26.10;92.60
4429;DHT22;2227;47.810;8.810;2023-09-19T14:27:26;26.50;92.10
4429;DHT22;2227;47.810;8.810;2023-09-19T14:29:53;26.60;90.60
4429;DHT22;2227;47.810;8.810;2023-09-19T14:32:19;26.30;92.20
4429;DHT22;2227;47.810;8.810;2023-09-19T14:34:46;26.50;90.90
4429;DHT22;2227;47.810;8.810;2023-09-19T14:37:13;26.70;91.10
4429;DHT22;2227;47.810;8.810;2023-09-19T14:39:41;26.60;91.00
4429;DHT22;2227;47.810;8.810;2023-09-19T14:42:11;26.80;90.80
4429;DHT22;2227;47.810;8.810;2023-09-19T14:44:39;27.10;90.50
4429;DHT22;2227;47.810;8.810;2023-09-19T14:47:07;27.00;91.00
4429;DHT22;2227;47.810;8.810;2023-09-19T14:49:34;26.50;91.60
4429;DHT22;2227;47.810;8.810;2023-09-19T14:52:01;26.40;92.70
4429;DHT22;2227;47.810;8.810;2023-09-19T14:54:30;26.40;92.70
4429;DHT22;2227;47.810;8.810;2023-09-19T14:56:57;26.40;92.70
4429;DHT22;2227;47.810;8.810;2023-09-19T14:59:31;26.30;92.60
4429;DHT22;2227;47.810;8.810;2023-09-19T15:01:58;26.20;92.50
4429;DHT22;2227;47.810;8.810;2023-09-19T15:04:27;25.90;92.40
4429;DHT22;2227;47.810;8.810;2023-09-19T15:06:54;25.50;93.40
4429;DHT22;2227;47.810;8.810;2023-09-19T15:09:23;25.10;93.80
4429;DHT22;2227;47.810;8.810;2023-09-19T15:11:53;25.00;94.00
4429;DHT22;2227;47.810;8.810;2023-09-19T15:14:21;25.30;93.50
4429;DHT22;2227;47.810;8.810;2023-09-19T15:16:48;25.40;93.20
4429;DHT22;2227;47.810;8.810;2023-09-19T15:19:16;25.60;93.70
4429;DHT22;2227;47.810;8.810;2023-09-19T15:21:43;25.90;92.70
4429;DHT22;2227;47.810;8.810;2023-09-19T15:24:10;26.00;93.00
4429;DHT22;2227;47.810;8.810;2023-09-19T15:26:37;26.10;92.40
4429;DHT22;2227;47.810;8.810;2023-09-19T15:29:09;25.90;92.60
4429;DHT22;2227;47.810;8.810;2023-09-19T15:31:36;26.00;93.30
4429;DHT22;2227;47.810;8.810;2023-09-19T15:34:04;26.10;92.00
4429;DHT22;2227;47.810;8.810;2023-09-19T15:36:32;26.00;91.80
4429;DHT22;2227;47.810;8.810;2023-09-19T15:39:06;25.90;91.70
4429;DHT22;2227;47.810;8.810;2023-09-19T15:41:45;25.90;92.20
4429;DHT22;2227;47.810;8.810;2023-09-19T15:44:18;25.80;92.20
4429;DHT22;2227;47.810;8.810;2023-09-19T15:46:48;26.00;92.10
4429;DHT22;2227;47.810;8.810;2023-09-19T15:49:15;25.90;92.40
4429;DHT22;2227;47.810;8.810;2023-09-19T15:51:41;26.10;91.60
4429;DHT22;2227;47.810;8.810;2023-09-19T15:54:13;26.10;91.60
4429;DHT22;2227;47.810;8.810;2023-09-19T15:56:42;25.80;92.10
4429;DHT22;2227;47.810;8.810;2023-09-19T15:59:09;25.50;92.30
4429;DHT22;2227;47.810;8.810;2023-09-19T16:01:40;25.60;92.10
4429;DHT22;2227;47.810;8.810;2023-09-19T16:04:07;25.80;92.00
4429;DHT22;2227;47.810;8.810;2023-09-19T16:06:37;25.90;92.20
4429;DHT22;2227;47.810;8.810;2023-09-19T16:09:05;25.70;91.90
4429;DHT22;2227;47.810;8.810;2023-09-19T16:11:34;25.60;92.50
4429;DHT22;2227;47.810;8.810;2023-09-19T16:14:02;25.60;92.30
4429;DHT22;2227;47.810;8.810;2023-09-19T16:16:29;25.50;92.50
4429;DHT22;2227;47.810;8.810;2023-09-19T16:19:02;25.50;92.50
4429;DHT22;2227;47.810;8.810;2023-09-19T16:21:32;25.50;92.70
4429;DHT22;2227;47.810;8.810;2023-09-19T16:24:01;25.20;92.90
4429;DHT22;2227;47.810;8.810;2023-09-19T16:26:28;25.30;93.20
4429;DHT22;2227;47.810;8.810;2023-09-19T16:28:57;25.40;93.50
4429;DHT22;2227;47.810;8.810;2023-09-19T16:31:28;25.60;93.30
4429;DHT22;2227;47.810;8.810;2023-09-19T16:33:56;25.80;93.10
4429;DHT22;2227;47.810;8.810;2023-09-19T16:36:23;25.50;92.30
4429;DHT22;2227;47.810;8.810;2023-09-19T16:38:51;25.40;92.60
4429;DHT22;2227;47.810;8.810;2023-09-19T16:41:18;25.10;92.40
4429;DHT22;2227;47.810;8.810;2023-09-19T16:43:46;24.80;93.20
4429;DHT22;2227;47.810;8.810;2023-09-19T16:46:14;24.60;93.50
4429;DHT22;2227;47.810;8.810;2023-09-19T16:48:45;24.40;93.90
4429;DHT22;2227;47.810;8.810;2023-09-19T16:51:28;24.10;94.10
4429;DHT22;2227;47.810;8.810;2023-09-19T16:53:55;23.90;94.90
4429;DHT22;2227;47.810;8.810;2023-09-19T16:56:23;23.60;95.40
4429;DHT22;2227;47.810;8.810;2023-09-19T16:58:49;23.40;95.60
4429;DHT22;2227;47.810;8.810;2023-09-19T17:01:19;23.40;95.80
4429;DHT22;2227;47.810;8.810;2023-09-19T17:03:47;23.10;96.20
4429;DHT22;2227;47.810;8.810;2023-09-19T17:06:16;23.00;96.60
4429;DHT22;2227;47.810;8.810;2023-09-19T17:08:45;22.80;97.40
4429;DHT22;2227;47.810;8.810;2023-09-19T17:11:14;22.70;98.00
4429;DHT22;2227;47.810;8.810;2023-09-19T17:13:44;22.60;98.10
4429;DHT22;2227;47.810;8.810;2023-09-19T17:16:15;22.40;98.40
4429;DHT22;2227;47.810;8.810;2023-09-19T17:18:51;22.20;99.10
4429;DHT22;2227;47.810;8.810;2023-09-19T17:21:19;22.00;99.50
4429;DHT22;2227;47.810;8.810;2023-09-19T17:23:46;21.90;99.70
4429;DHT22;2227;47.810;8.810;2023-09-19T17:26:13;21.60;99.90
4429;DHT22;2227;47.810;8.810;2023-09-19T17:28:41;21.40;99.90
4429;DHT22;2227;47.810;8.810;2023-09-19T17:31:10;21.30;99.90
4429;DHT22;2227;47.810;8.810;2023-09-19T17:33:42;21.30;99.90
4429;DHT22;2227;47.810;8.810;2023-09-19T17:36:11;21.20;99.90
4429;DHT22;2227;47.810;8.810;2023-09-19T17:38:42;21.00;99.90
4429;DHT22;2227;47.810;8.810;2023-09-19T17:41:10;20.90;99.90
4429;DHT22;2227;47.810;8.810;2023-09-19T17:43:42;20.80;99.90
4429;DHT22;2227;47.810;8.810;2023-09-19T17:46:16;20.70;99.90
4429;DHT22;2227;47.810;8.810;2023-09-19T17:48:45;20.50;99.90
4429;DHT22;2227;47.810;8.810;2023-09-19T17:51:14;20.30;99.90
4429;DHT22;2227;47.810;8.810;2023-09-19T17:53:43;20.20;99.90
4429;DHT22;2227;47.810;8.810;2023-09-19T17:56:12;20.00;99.90
4429;DHT22;2227;47.810;8.810;2023-09-19T17:58:42;20.00;99.90
4429;DHT22;2227;47.810;8.810;2023-09-19T18:01:14;19.90;99.90
4429;DHT22;2227;47.810;8.810;2023-09-19T18:03:47;19.80;99.90
4429;DHT22;2227;47.810;8.810;2023-09-19T18:06:14;19.80;99.90
4429;DHT22;2227;47.810;8.810;2023-09-19T18:08:43;19.70;99.90
4429;DHT22;2227;47.810;8.810;2023-09-19T18:11:15;19.50;99.90
4429;DHT22;2227;47.810;8.810;2023-09-19T18:13:46;19.40;99.90
4429;DHT22;2227;47.810;8.810;2023-09-19T18:16:18;19.20;99.90
4429;DHT22;2227;47.810;8.810;2023-09-19T18:18:46;19.10;99.90
4429;DHT22;2227;47.810;8.810;2023-09-19T18:21:19;19.10;99.90
4429;DHT22;2227;47.810;8.810;2023-09-19T18:23:57;19.10;99.90
4429;DHT22;2227;47.810;8.810;2023-09-19T18:26:27;19.10;99.90
4429;DHT22;2227;47.810;8.810;2023-09-19T18:28:54;19.00;99.90
4429;DHT22;2227;47.810;8.810;2023-09-19T18:31:21;19.00;99.90
4429;DHT22;2227;47.810;8.810;2023-09-19T18:33:48;19.00;99.90
4429;DHT22;2227;47.810;8.810;2023-09-19T18:36:17;18.90;99.90
4429;DHT22;2227;47.810;8.810;2023-09-19T18:38:44;18.90;99.90
4429;DHT22;2227;47.810;8.810;2023-09-19T18:41:13;18.80;99.90
4429;DHT22;2227;47.810;8.810;2023-09-19T18:43:41;18.90;99.90
4429;DHT22;2227;47.810;8.810;2023-09-19T18:46:08;18.70;99.90
4429;DHT22;2227;47.810;8.810;2023-09-19T18:48:39;18.70;99.90
4429;DHT22;2227;47.810;8.810;2023-09-19T18:51:15;18.70;99.90
4429;DHT22;2227;47.810;8.810;2023-09-19T18:53:45;18.70;99.90
4429;DHT22;2227;47.810;8.810;2023-09-19T18:56:27;18.70;99.90
4429;DHT22;2227;47.810;8.810;2023-09-19T18:58:54;18.60;99.90
4429;DHT22;2227;47.810;8.810;2023-09-19T19:01:21;18.60;99.90
4429;DHT22;2227;47.810;8.810;2023-09-19T19:03:51;18.50;99.90
4429;DHT22;2227;47.810;8.810;2023-09-19T19:06:19;18.50;99.90
4429;DHT22;2227;47.810;8.810;2023-09-19T19:08:48;18.40;99.90
4429;DHT22;2227;47.810;8.810;2023-09-19T19:11:15;18.50;99.90
4429;DHT22;2227;47.810;8.810;2023-09-19T19:13:51;18.40;99.90
4429;DHT22;2227;47.810;8.810;2023-09-19T19:16:18;18.30;99.90
4429;DHT22;2227;47.810;8.810;2023-09-19T19:18:47;18.20;99.90
4429;DHT22;2227;47.810;8.810;2023-09-19T19:21:15;18.10;99.90
4429;DHT22;2227;47.810;8.810;2023-09-19T19:23:42;18.00;99.90
4429;DHT22;2227;47.810;8.810;2023-09-19T19:26:09;18.00;99.90
4429;DHT22;2227;47.810;8.810;2023-09-19T19:28:39;18.00;99.90
4429;DHT22;2227;47.810;8.810;2023-09-19T19:31:07;17.90;99.90
4429;DHT22;2227;47.810;8.810;2023-09-19T19:33:36;18.00;99.90
4429;DHT22;2227;47.810;8.810;2023-09-19T19:36:05;17.90;99.90
4429;DHT22;2227;47.810;8.810;2023-09-19T19:38:33;17.80;99.90
4429;DHT22;2227;47.810;8.810;2023-09-19T19:41:00;17.80;99.90
4429;DHT22;2227;47.810;8.810;2023-09-19T19:43:28;17.80;99.90
4429;DHT22;2227;47.810;8.810;2023-09-19T19:45:56;17.80;99.90
4429;DHT22;2227;47.810;8.810;2023-09-19T19:48:24;17.80;99.90
4429;DHT22;2227;47.810;8.810;2023-09-19T19:50:51;17.80;99.90
4429;DHT22;2227;47.810;8.810;2023-09-19T19:53:21;17.80;99.90
4429;DHT22;2227;47.810;8.810;2023-09-19T19:55:50;17.80;99.90
4429;DHT22;2227;47.810;8.810;2023-09-19T19:58:18;17.80;99.90
4429;DHT22;2227;47.810;8.810;2023-09-19T20:00:48;17.70;99.90
4429;DHT22;2227;47.810;8.810;2023-09-19T20:03:16;17.60;99.90
4429;DHT22;2227;47.810;8.810;2023-09-19T20:05:44;17.60;99.90
4429;DHT22;2227;47.810;8.810;2023-09-19T20:08:13;17.60;99.90
4429;DHT22;2227;47.810;8.810;2023-09-19T20:10:40;17.60;99.90
4429;DHT22;2227;47.810;8.810;2023-09-19T20:13:07;17.60;99.90
4429;DHT22;2227;47.810;8.810;2023-09-19T20:15:39;17.40;99.90
4429;DHT22;2227;47.810;8.810;2023-09-19T20:18:06;17.40;99.90
4429;DHT22;2227;47.810;8.810;2023-09-19T20:20:39;17.20;99.90
4429;DHT22;2227;47.810;8.810;2023-09-19T20:23:06;17.10;99.90
4429;DHT22;2227;47.810;8.810;2023-09-19T20:25:34;17.00;99.90
4429;DHT22;2227;47.810;8.810;2023-09-19T20:28:02;17.00;99.90
4429;DHT22;2227;47.810;8.810;2023-09-19T20:30:32;17.00;99.90